createdAt,value
2022-09-01T00:06:59.913Z,0.80
2022-09-01T00:17:04.845Z,0.52
2022-09-01T00:37:08.112Z,0.50
2022-09-01T00:47:09.821Z,0.70
2022-09-01T00:57:12.816Z,0.50
2022-09-01T01:07:15.663Z,0.50
2022-09-01T01:17:19.122Z,0.60
2022-09-01T01:27:21.941Z,0.40
2022-09-01T01:37:25.431Z,0.50
2022-09-01T01:47:27.721Z,0.60
2022-09-01T01:57:31.907Z,0.50
2022-09-01T02:07:33.889Z,0.60
2022-09-01T02:17:35.687Z,0.60
2022-09-01T02:27:39.556Z,0.40
2022-09-01T02:37:43.420Z,0.50
2022-09-01T02:47:48.498Z,0.52
2022-09-01T02:57:55.599Z,0.40
2022-09-01T03:08:03.008Z,0.40
2022-09-01T03:18:06.397Z,0.30
2022-09-01T03:28:08.172Z,0.40
2022-09-01T03:38:21.990Z,0.50
2022-09-01T03:48:28.806Z,0.60
2022-09-01T03:58:30.943Z,0.47
2022-09-01T04:08:33.259Z,0.50
2022-09-01T04:18:35.850Z,0.50
2022-09-01T04:28:45.547Z,0.40
2022-09-01T04:38:49.266Z,0.68
2022-09-01T04:48:52.884Z,0.47
2022-09-01T04:58:55.839Z,0.55
2022-09-01T05:08:57.903Z,0.55
2022-09-01T05:19:24.778Z,0.40
2022-09-01T05:29:28.983Z,0.50
2022-09-01T05:39:31.657Z,0.60
2022-09-01T05:49:33.750Z,0.52
2022-09-01T06:09:50.025Z,0.60
2022-09-01T06:19:56.383Z,0.52
2022-09-01T06:29:58.572Z,0.60
2022-09-01T06:40:00.602Z,0.50
2022-09-01T06:50:04.050Z,0.43
2022-09-01T07:00:18.837Z,0.50
2022-09-01T07:10:24.852Z,0.47
2022-09-01T07:52:42.650Z,0.40
2022-09-01T08:02:46.610Z,0.52
2022-09-01T08:12:58.461Z,0.50
2022-09-01T08:23:01.725Z,0.50
2022-09-01T08:33:10.739Z,0.50
2022-09-01T08:43:39.557Z,0.40
2022-09-01T08:53:46.277Z,0.40
2022-09-01T09:04:09.807Z,0.60
2022-09-01T09:14:39.392Z,0.40
2022-09-01T09:24:53.112Z,0.32
2022-09-01T09:34:54.785Z,0.47
2022-09-01T09:44:57.671Z,0.43
2022-09-01T09:55:05.749Z,0.40
2022-09-01T10:05:25.476Z,0.63
2022-09-01T10:15:30.871Z,0.30
2022-09-01T10:25:34.849Z,0.38
2022-09-01T10:35:40.655Z,0.40
2022-09-01T10:45:44.472Z,0.40
2022-09-01T10:56:43.625Z,0.30
2022-09-01T11:07:14.483Z,0.50
2022-09-01T11:17:25.622Z,0.40
2022-09-01T11:27:49.204Z,0.50
2022-09-01T11:37:53.026Z,0.60
2022-09-01T11:47:58.777Z,0.50
2022-09-01T11:58:00.869Z,0.47
2022-09-01T12:08:13.972Z,0.35
2022-09-01T12:18:30.537Z,0.40
2022-09-01T12:28:33.836Z,0.38
2022-09-01T12:38:35.397Z,0.30
2022-09-01T12:48:39.427Z,0.32
2022-09-01T12:58:42.861Z,0.40
2022-09-01T13:08:44.413Z,0.60
2022-09-01T13:29:07.501Z,0.30
2022-09-01T13:39:08.993Z,0.20
2022-09-01T13:59:33.714Z,0.60
2022-09-01T14:09:35.286Z,0.30
2022-09-01T14:19:37.059Z,0.40
2022-09-01T14:39:41.996Z,0.30
2022-09-01T14:49:44.117Z,0.30
2022-09-01T14:59:45.710Z,0.32
2022-09-01T15:09:47.269Z,0.47
2022-09-01T15:19:48.825Z,0.40
2022-09-01T15:29:51.194Z,0.20
2022-09-01T15:39:54.960Z,0.40
2022-09-01T15:49:56.636Z,0.30
2022-09-01T15:59:58.951Z,0.15
2022-09-01T16:10:01.228Z,0.40
2022-09-01T16:20:10.757Z,0.45
2022-09-01T16:30:21.179Z,0.50
2022-09-01T16:40:53.865Z,0.50
2022-09-01T16:51:31.464Z,0.63
2022-09-01T17:01:52.340Z,0.68
2022-09-01T17:12:06.360Z,0.80
2022-09-01T17:22:11.578Z,0.90
2022-09-01T17:32:19.058Z,0.90
2022-09-01T17:42:30.194Z,0.80
2022-09-01T17:52:52.613Z,0.80
2022-09-01T18:03:14.768Z,0.82
2022-09-01T18:13:30.955Z,0.60
2022-09-01T18:23:45.987Z,0.90
2022-09-01T18:34:05.772Z,0.80
2022-09-01T18:44:45.082Z,0.80
2022-09-01T18:54:57.983Z,0.65
2022-09-01T19:05:03.782Z,0.82
2022-09-01T19:15:30.053Z,0.73
2022-09-01T19:25:36.425Z,0.50
2022-09-01T19:35:39.537Z,0.75
2022-09-01T19:45:52.407Z,0.68
2022-09-01T19:56:00.682Z,0.85
2022-09-01T20:06:09.979Z,0.80
2022-09-01T20:16:32.223Z,0.55
2022-09-01T20:26:49.569Z,0.70
2022-09-01T20:36:56.489Z,0.63
2022-09-01T20:46:58.040Z,0.90
2022-09-01T20:57:09.421Z,0.70
2022-09-01T21:07:36.987Z,0.50
2022-09-01T21:18:04.539Z,0.57
2022-09-01T21:28:06.544Z,0.60
2022-09-01T21:38:08.112Z,0.60
2022-09-01T21:48:09.788Z,0.40
2022-09-01T21:58:11.568Z,0.57
2022-09-01T22:08:15.999Z,0.60
2022-09-01T22:18:19.769Z,0.57
2022-09-01T22:28:21.775Z,0.40
2022-09-01T22:38:23.594Z,0.47
2022-09-01T22:48:27.104Z,0.40
2022-09-01T22:58:28.717Z,0.50
2022-09-01T23:08:30.308Z,0.70
2022-09-01T23:18:33.758Z,0.40
2022-09-01T23:28:36.231Z,0.50
2022-09-01T23:38:38.532Z,0.50
2022-09-01T23:48:40.039Z,0.45
2022-09-01T23:58:42.106Z,0.43
